Time;durP1;ratioP1;P1;durP2;ratioP2;P2;SDS_P1;SDS_P2;PMS_P1;PMS_P2;Temp;Humidity;BMP_temperature;BMP_pressure;BME280_temperature;BME280_humidity;BME280_pressure;Samples;Min_cycle;Max_cycle;Signal;HPM_P1;HPM_P2
2021/10/15 09:54:27;;;;;;;23.05;12.98;;;11.50;99.90;;;;;;11956495;27;20371;-59
2021/10/15 10:00:15;;;;;;;17.95;9.80;;;12.40;99.90;;;;;;11899958;28;20091;-61
2021/10/15 10:06:02;;;;;;;10.57;6.90;;;13.10;99.90;;;;;;11890666;28;20958;-59
2021/10/15 10:11:51;;;;;;;16.85;7.47;;;13.50;99.90;;;;;;11886992;28;20054;-61
2021/10/15 10:17:42;;;;;;;16.00;5.95;;;13.80;99.90;;;;;;11889679;28;20103;-60
2021/10/15 10:23:33;;;;;;;12.73;5.82;;;14.10;99.90;;;;;;11857696;28;20088;-61
2021/10/15 10:29:21;;;;;;;18.40;5.60;;;14.20;99.90;;;;;;11866593;28;20046;-60
2021/10/15 10:35:26;;;;;;;12.27;5.45;;;14.40;99.90;;;;;;11889893;28;20057;-61
2021/10/15 10:41:22;;;;;;;16.73;7.20;;;14.50;99.90;;;;;;11895892;28;20054;-61
2021/10/15 10:47:14;;;;;;;19.90;8.35;;;14.50;99.90;;;;;;11893403;28;20053;-61
2021/10/15 10:53:11;;;;;;;13.82;5.72;;;14.60;99.90;;;;;;11887009;28;20778;-61
2021/10/15 10:59:01;;;;;;;15.00;5.60;;;14.70;99.90;;;;;;11886728;28;21170;-63
2021/10/15 11:05:00;;;;;;;10.52;4.82;;;14.60;99.90;;;;;;11880218;28;20056;-59
2021/10/15 11:10:47;;;;;;;11.02;5.25;;;14.80;99.90;;;;;;11855412;28;20046;-62
2021/10/15 11:16:34;;;;;;;10.55;4.50;;;14.90;99.90;;;;;;11856336;28;20053;-62
2021/10/15 11:22:23;;;;;;;7.22;4.55;;;15.10;99.90;;;;;;11855451;28;20066;-62
2021/10/15 11:28:12;;;;;;;10.32;4.47;;;15.20;99.90;;;;;;11893704;28;20062;-62
2021/10/15 11:34:09;;;;;;;11.77;4.10;;;15.40;99.90;;;;;;11894864;28;20057;-61
2021/10/15 11:40:16;;;;;;;14.63;3.47;;;15.50;99.90;;;;;;11916552;28;20061;-62
2021/10/15 11:46:06;;;;;;;9.00;3.30;;;15.70;99.90;;;;;;11917360;28;20660;-61
2021/10/15 11:51:58;;;;;;;6.47;3.40;;;15.80;99.90;;;;;;11904132;28;20041;-62
2021/10/15 11:57:50;;;;;;;10.63;4.13;;;15.90;99.90;;;;;;11888910;28;20049;-64
2021/10/15 12:03:39;;;;;;;6.75;3.40;;;16.00;99.90;;;;;;11806338;28;20088;-62
2021/10/15 12:09:26;;;;;;;10.70;3.00;;;16.10;99.90;;;;;;11900753;28;20429;-62
2021/10/15 12:15:17;;;;;;;6.00;2.53;;;16.30;99.90;;;;;;11916492;28;20070;-63
2021/10/15 12:21:11;;;;;;;6.45;2.70;;;16.40;99.90;;;;;;11893698;28;20046;-63
2021/10/15 12:27:10;;;;;;;6.18;2.85;;;16.60;99.90;;;;;;11858001;28;20362;-63
2021/10/15 12:33:08;;;;;;;9.70;3.00;;;16.20;99.90;;;;;;11897770;28;20061;-63
2021/10/15 12:39:15;;;;;;;8.85;3.15;;;16.30;99.90;;;;;;11832028;28;20096;-63
2021/10/15 12:45:05;;;;;;;8.40;3.10;;;16.50;99.90;;;;;;11905254;28;20049;-62
2021/10/15 12:51:04;;;;;;;6.45;3.70;;;16.90;99.90;;;;;;11883715;28;20034;-62
2021/10/15 12:56:50;;;;;;;6.55;3.20;;;17.10;99.90;;;;;;11868508;28;20049;-62
2021/10/15 13:02:38;;;;;;;8.30;2.75;;;17.30;99.90;;;;;;11852744;28;20061;-61
2021/10/15 13:08:27;;;;;;;21.17;4.65;;;17.60;99.90;;;;;;11896193;28;20510;-62
2021/10/15 13:14:14;;;;;;;11.35;3.97;;;17.60;99.90;;;;;;11847288;28;20590;-62
2021/10/15 13:20:01;;;;;;;5.90;3.35;;;17.80;99.90;;;;;;11882320;28;20148;-63
2021/10/15 13:25:49;;;;;;;12.85;4.05;;;17.50;99.90;;;;;;11856305;28;20045;-63
2021/10/15 13:31:36;;;;;;;10.35;4.10;;;17.20;99.90;;;;;;11888841;28;20087;-64
2021/10/15 13:37:25;;;;;;;7.45;4.15;;;17.10;99.90;;;;;;11905043;28;20053;-63
2021/10/15 13:43:19;;;;;;;244.93;144.65;;;17.60;99.90;;;;;;11896195;28;20097;-61
2021/10/15 13:55:11;;;;;;;14.30;5.07;;;18.00;99.90;;;;;;11882173;28;20434;-63
2021/10/15 14:01:01;;;;;;;13.82;4.70;;;17.70;99.90;;;;;;11790268;28;20406;-63
2021/10/15 14:06:50;;;;;;;11.02;4.57;;;17.60;99.90;;;;;;11849175;28;20487;-62
2021/10/15 14:12:37;;;;;;;8.82;4.70;;;17.70;99.90;;;;;;11854604;28;20175;-62
2021/10/15 14:18:25;;;;;;;12.65;5.20;;;18.00;99.90;;;;;;11806478;28;20050;-61
2021/10/15 14:24:12;;;;;;;17.33;5.32;;;18.40;99.90;;;;;;11883569;28;20118;-61
2021/10/15 14:29:59;;;;;;;9.88;5.20;;;18.50;99.90;;;;;;11875049;28;20453;-62
2021/10/15 14:35:48;;;;;;;7.55;4.40;;;18.60;99.90;;;;;;11899803;28;20046;-61
2021/10/15 14:41:35;;;;;;;13.10;4.22;;;18.60;99.90;;;;;;11868651;28;20050;-61
2021/10/15 14:47:22;;;;;;;5.72;3.63;;;18.50;99.90;;;;;;11884464;28;20050;-61
2021/10/15 14:53:11;;;;;;;5.05;3.17;;;18.30;99.90;;;;;;11896052;28;20064;-61
2021/10/15 14:58:58;;;;;;;10.10;4.10;;;17.90;99.90;;;;;;11881906;28;20149;-61
2021/10/15 15:04:45;;;;;;;8.02;4.28;;;17.70;99.90;;;;;;11837883;28;20045;-62
2021/10/15 15:10:35;;;;;;;6.97;3.03;;;17.40;99.90;;;;;;11772620;28;20069;-62
2021/10/15 15:16:22;;;;;;;6.80;3.53;;;17.40;99.90;;;;;;11815792;28;20089;-62
2021/10/15 15:22:09;;;;;;;12.25;3.20;;;17.20;99.90;;;;;;11891948;28;20429;-63
2021/10/15 15:27:57;;;;;;;8.73;3.30;;;17.10;99.90;;;;;;11865942;28;20054;-62
2021/10/15 15:33:44;;;;;;;9.05;3.58;;;17.00;99.90;;;;;;11870834;28;20454;-62
2021/10/15 15:39:32;;;;;;;4.22;3.20;;;16.90;99.90;;;;;;11839243;28;20043;-62
2021/10/15 15:45:22;;;;;;;7.15;3.20;;;16.60;99.90;;;;;;11826695;28;20450;-63
2021/10/15 15:51:09;;;;;;;4.18;3.00;;;16.50;99.90;;;;;;11878924;28;20050;-63
2021/10/15 15:56:56;;;;;;;7.35;3.30;;;16.50;99.90;;;;;;11831740;28;20185;-62
2021/10/15 16:02:45;;;;;;;12.07;3.70;;;16.40;99.90;;;;;;11803953;28;20056;-63
2021/10/15 16:08:32;;;;;;;5.25;3.40;;;16.10;99.90;;;;;;11864560;28;20049;-63
2021/10/15 16:14:19;;;;;;;8.23;3.30;;;16.00;99.90;;;;;;11837493;28;20062;-62
2021/10/15 16:20:08;;;;;;;8.35;3.42;;;16.00;99.90;;;;;;11904509;28;20064;-62
2021/10/15 16:25:55;;;;;;;10.63;3.08;;;16.00;99.90;;;;;;11891051;28;20042;-62
2021/10/15 16:31:42;;;;;;;8.05;3.50;;;15.60;99.90;;;;;;11906786;28;20136;-63
2021/10/15 16:37:31;;;;;;;7.20;3.90;;;15.40;99.90;;;;;;11893702;28;20068;-62
2021/10/15 16:43:18;;;;;;;8.05;5.00;;;15.30;99.90;;;;;;11837214;28;20533;-61
2021/10/15 16:49:06;;;;;;;9.82;4.13;;;15.30;99.90;;;;;;11864146;28;20050;-62
2021/10/15 16:54:54;;;;;;;12.15;4.05;;;15.30;99.90;;;;;;11864161;28;20049;-63
2021/10/15 17:00:41;;;;;;;9.57;4.63;;;15.20;99.90;;;;;;11837578;28;20053;-62
2021/10/15 17:06:27;;;;;;;8.98;4.35;;;15.00;99.90;;;;;;11816381;28;20552;-63
2021/10/15 17:12:17;;;;;;;8.02;4.07;;;15.00;99.90;;;;;;11850688;28;20060;-63
2021/10/15 17:18:04;;;;;;;14.73;4.45;;;14.90;99.90;;;;;;11833557;28;20054;-63
2021/10/15 17:23:50;;;;;;;9.77;4.78;;;14.80;99.90;;;;;;11830390;28;20050;-64
2021/10/15 17:29:39;;;;;;;9.30;4.65;;;14.70;99.90;;;;;;11834580;28;20057;-62
2021/10/15 17:35:26;;;;;;;11.90;4.82;;;14.70;99.90;;;;;;11795953;28;20071;-62
2021/10/15 17:41:13;;;;;;;9.23;4.70;;;14.60;99.90;;;;;;11804360;28;20046;-64
2021/10/15 17:47:02;;;;;;;19.02;5.25;;;14.60;99.90;;;;;;11838183;28;20478;-62
2021/10/15 17:52:49;;;;;;;12.65;6.03;;;14.60;99.90;;;;;;11765056;28;20479;-62
2021/10/15 17:58:36;;;;;;;12.35;5.40;;;14.50;99.90;;;;;;11831947;28;20122;-63
2021/10/15 18:04:24;;;;;;;10.35;6.05;;;14.50;99.90;;;;;;11874450;28;20054;-63
2021/10/15 18:10:11;;;;;;;20.88;9.68;;;14.50;99.90;;;;;;11796941;28;20046;-63
2021/10/15 18:15:58;;;;;;;23.80;12.15;;;14.50;99.90;;;;;;11826363;28;20065;-63
2021/10/15 18:21:46;;;;;;;23.50;12.45;;;14.50;99.90;;;;;;11833391;28;20061;-61
2021/10/15 18:27:33;;;;;;;18.77;10.18;;;14.40;99.90;;;;;;11796707;28;20050;-61
2021/10/15 18:33:20;;;;;;;19.88;9.25;;;14.40;99.90;;;;;;11801822;28;20054;-62
2021/10/15 18:39:08;;;;;;;18.63;7.72;;;14.40;99.90;;;;;;11804802;28;20054;-62
2021/10/15 18:44:55;;;;;;;28.98;9.98;;;14.30;99.90;;;;;;11785788;28;20054;-62
2021/10/15 18:50:44;;;;;;;19.10;8.73;;;14.40;99.90;;;;;;11841379;28;20070;-62
2021/10/15 18:56:32;;;;;;;15.85;8.32;;;14.40;99.90;;;;;;11843986;28;20092;-62
2021/10/15 19:02:19;;;;;;;15.25;9.40;;;14.30;99.90;;;;;;11838618;28;20050;-64
2021/10/15 19:08:06;;;;;;;25.17;13.57;;;14.40;99.90;;;;;;11792591;28;20078;-62
2021/10/15 19:13:54;;;;;;;26.55;16.38;;;14.40;99.90;;;;;;11749368;28;20065;-65
2021/10/15 19:19:41;;;;;;;29.25;17.90;;;14.50;99.90;;;;;;11818069;28;20066;-62
2021/10/15 19:25:28;;;;;;;35.05;17.50;;;14.40;99.90;;;;;;11785874;28;20058;-62
2021/10/15 19:31:17;;;;;;;30.75;18.17;;;14.40;99.90;;;;;;11785888;28;20054;-63
2021/10/15 19:37:04;;;;;;;29.00;15.70;;;14.30;99.90;;;;;;11873745;23;20051;-86
2021/10/15 19:42:51;;;;;;;21.00;14.20;;;14.10;99.90;;;;;;11825658;28;20063;-83
2021/10/15 19:48:39;;;;;;;21.48;12.48;;;14.10;99.90;;;;;;11752382;28;20048;-84
2021/10/15 19:54:26;;;;;;;20.25;11.07;;;14.10;99.90;;;;;;11755198;28;20528;-84
2021/10/15 20:00:14;;;;;;;18.38;11.50;;;14.10;99.90;;;;;;11750405;28;20054;-85
2021/10/15 20:06:02;;;;;;;20.15;12.27;;;14.10;99.90;;;;;;11758515;28;20101;-84
2021/10/15 20:11:49;;;;;;;21.48;12.05;;;14.10;99.90;;;;;;11795788;28;20061;-85
2021/10/15 20:17:36;;;;;;;28.58;14.00;;;14.10;99.90;;;;;;11786737;28;20057;-83
2021/10/15 20:23:24;;;;;;;24.50;13.27;;;14.10;99.90;;;;;;11782462;28;20051;-84
2021/10/15 20:29:11;;;;;;;25.92;13.18;;;14.10;99.90;;;;;;11761509;28;20438;-84
2021/10/15 20:34:58;;;;;;;28.67;12.32;;;14.10;99.90;;;;;;11770021;28;20063;-84
2021/10/15 20:41:01;;;;;;;22.95;12.23;;;14.20;99.90;;;;;;11751513;28;20046;-84
2021/10/15 20:46:48;;;;;;;21.25;12.07;;;14.10;99.90;;;;;;11780283;28;20055;-80
2021/10/15 20:52:35;;;;;;;28.38;14.82;;;14.20;99.90;;;;;;11773321;28;20422;-78
2021/10/15 20:58:23;;;;;;;30.98;17.58;;;14.10;99.90;;;;;;11710892;28;20561;-80
2021/10/15 21:04:10;;;;;;;33.80;17.05;;;14.10;99.90;;;;;;11825903;28;20097;-80
2021/10/15 21:09:57;;;;;;;28.58;16.75;;;14.00;99.90;;;;;;11806161;28;20113;-80
2021/10/15 21:15:46;;;;;;;28.33;15.23;;;14.00;99.90;;;;;;11792532;28;20054;-80
2021/10/15 21:21:39;;;;;;;30.80;17.15;;;13.90;99.90;;;;;;11797589;28;20540;-80
2021/10/15 21:27:26;;;;;;;25.50;14.80;;;13.90;99.90;;;;;;11784587;28;20184;-83
2021/10/15 21:33:14;;;;;;;27.13;15.73;;;13.80;99.90;;;;;;11808916;28;20065;-83
2021/10/15 21:39:01;;;;;;;34.50;17.27;;;13.80;99.90;;;;;;11787196;28;20054;-83
2021/10/15 21:44:48;;;;;;;33.85;17.77;;;13.80;99.90;;;;;;11766048;28;20426;-83
2021/10/15 21:50:36;;;;;;;27.25;17.35;;;13.80;99.90;;;;;;11788019;28;20058;-83
2021/10/15 21:56:23;;;;;;;27.33;17.10;;;13.70;99.90;;;;;;11768994;28;20088;-77
2021/10/15 22:02:11;;;;;;;35.28;20.25;;;13.70;99.90;;;;;;11730411;28;20044;-78
2021/10/15 22:08:00;;;;;;;28.38;16.85;;;13.70;99.90;;;;;;11734275;28;20169;-78
2021/10/15 22:13:46;;;;;;;32.38;16.52;;;13.60;99.90;;;;;;11793942;28;20055;-77
